Time;durP1;ratioP1;P1;durP2;ratioP2;P2;SDS_P1;SDS_P2;PMS_P1;PMS_P2;Temp;Humidity;BMP_temperature;BMP_pressure;BME280_temperature;BME280_humidity;BME280_pressure;Samples;Min_cycle;Max_cycle;Signal;HPM_P1;HPM_P2
2021/04/15 00:01:21;;;;;;;;;;;19.60;57.70;;;;;;5053135;28;1345;-67
2021/04/15 00:03:47;;;;;;;;;;;19.60;57.70;;;;;;5054109;28;1674;-67
2021/04/15 00:06:19;;;;;;;;;;;19.60;57.70;;;;;;5071679;28;1632;-67
2021/04/15 00:08:45;;;;;;;;;;;19.60;57.70;;;;;;5053418;28;1777;-67
2021/04/15 00:11:10;;;;;;;;;;;19.60;57.70;;;;;;5071230;28;1898;-66
2021/04/15 00:13:37;;;;;;;;;;;19.60;57.70;;;;;;5071183;28;1488;-66
2021/04/15 00:16:03;;;;;;;;;;;19.60;57.70;;;;;;5037027;28;1385;-67
2021/04/15 00:18:28;;;;;;;;;;;19.60;57.90;;;;;;5071395;28;1361;-67
2021/04/15 00:20:54;;;;;;;;;;;19.60;57.70;;;;;;5071396;28;1391;-66
2021/04/15 00:23:19;;;;;;;;;;;19.60;57.70;;;;;;5071437;28;1695;-67
2021/04/15 00:25:45;;;;;;;;;;;19.60;57.70;;;;;;5053668;28;1278;-67
2021/04/15 00:28:10;;;;;;;;;;;19.60;57.70;;;;;;5053219;28;1626;-66
2021/04/15 00:30:36;;;;;;;;;;;19.60;57.70;;;;;;5053528;28;1947;-67
2021/04/15 00:33:05;;;;;;;;;;;19.60;57.70;;;;;;5071511;28;1345;-67
2021/04/15 00:35:31;;;;;;;;;;;19.60;57.70;;;;;;5054214;28;1432;-67
2021/04/15 00:37:56;;;;;;;;;;;19.60;57.70;;;;;;5052897;28;1407;-67
2021/04/15 00:40:22;;;;;;;;;;;19.60;57.80;;;;;;5071430;28;1516;-67
2021/04/15 00:42:47;;;;;;;;;;;19.60;57.80;;;;;;5071448;28;1343;-66
2021/04/15 00:45:23;;;;;;;;;;;19.60;57.80;;;;;;5071315;28;1047;-66
2021/04/15 00:47:50;;;;;;;;;;;19.60;57.80;;;;;;5052847;28;1142;-67
2021/04/15 00:50:20;;;;;;;;;;;19.60;57.80;;;;;;5052981;28;1961;-67
2021/04/15 00:52:50;;;;;;;;;;;19.60;57.80;;;;;;5053314;28;1083;-67
2021/04/15 00:55:17;;;;;;;;;;;19.60;57.80;;;;;;5053188;28;1064;-66
2021/04/15 00:57:48;;;;;;;;;;;19.60;57.80;;;;;;5052756;28;1131;-67
2021/04/15 01:00:13;;;;;;;;;;;19.60;57.80;;;;;;5053811;28;1386;-66
2021/04/15 01:02:39;;;;;;;;;;;19.60;57.80;;;;;;5071033;28;1138;-67
2021/04/15 01:05:09;;;;;;;;;;;19.60;57.80;;;;;;5070992;28;1160;-67
2021/04/15 01:07:35;;;;;;;;;;;19.60;57.80;;;;;;5052896;28;1088;-67
2021/04/15 01:10:00;;;;;;;;;;;19.60;57.80;;;;;;5070512;28;1898;-67
2021/04/15 01:12:41;;;;;;;;;;;19.60;57.80;;;;;;5053079;28;1068;-67
2021/04/15 01:15:09;;;;;;;;;;;19.50;57.80;;;;;;5073844;28;1103;-67
2021/04/15 01:17:36;;;;;;;;;;;19.60;57.90;;;;;;5056160;28;1135;-67
2021/04/15 01:20:17;;;;;;;;;;;19.50;57.80;;;;;;5039800;28;2337;-67
2021/04/15 01:23:02;;;;;;;;;;;19.50;57.80;;;;;;5074443;28;1035;-67
2021/04/15 01:25:46;;;;;;;;;;;19.60;57.80;;;;;;5074179;28;1181;-67
2021/04/15 01:28:18;;;;;;;;;;;19.50;57.80;;;;;;5074107;28;1118;-67
2021/04/15 01:30:45;;;;;;;;;;;19.50;57.80;;;;;;5074298;28;1890;-67
2021/04/15 01:33:24;;;;;;;;;;;19.50;57.90;;;;;;5039396;28;1180;-67
2021/04/15 01:35:57;;;;;;;;;;;19.50;57.80;;;;;;5056530;28;1331;-66
2021/04/15 01:38:23;;;;;;;;;;;19.50;57.80;;;;;;5056769;28;1158;-67
2021/04/15 01:40:50;;;;;;;;;;;19.50;57.80;;;;;;5057202;28;1197;-67
2021/04/15 01:43:17;;;;;;;;;;;19.50;57.80;;;;;;5056967;28;1056;-67
2021/04/15 01:45:44;;;;;;;;;;;19.50;57.80;;;;;;5057188;28;1024;-66
2021/04/15 01:48:11;;;;;;;;;;;19.50;57.80;;;;;;5056819;28;1123;-67
2021/04/15 01:50:37;;;;;;;;;;;19.60;57.80;;;;;;5056836;28;1902;-67
2021/04/15 01:53:06;;;;;;;;;;;19.60;57.80;;;;;;5056489;28;1087;-67
2021/04/15 01:55:34;;;;;;;;;;;19.60;57.70;;;;;;5053096;28;1366;-68
2021/04/15 01:58:07;;;;;;;;;;;19.60;57.70;;;;;;5061526;28;1165;-67
2021/04/15 02:00:33;;;;;;;;;;;19.60;57.70;;;;;;5047264;28;1476;-67
2021/04/15 02:03:01;;;;;;;;;;;19.60;57.70;;;;;;5047131;28;1185;-68
2021/04/15 02:05:27;;;;;;;;;;;19.60;57.60;;;;;;5063399;28;1153;-68
2021/04/15 02:07:54;;;;;;;;;;;19.60;57.60;;;;;;5047021;28;1233;-68
2021/04/15 02:10:19;;;;;;;;;;;19.60;57.60;;;;;;5045470;28;1955;-68
2021/04/15 02:12:46;;;;;;;;;;;19.60;57.60;;;;;;5048201;28;1224;-66
2021/04/15 02:15:16;;;;;;;;;;;19.60;57.60;;;;;;5048627;28;1232;-67
2021/04/15 02:17:42;;;;;;;;;;;19.60;57.60;;;;;;5043379;28;1169;-68
2021/04/15 02:20:14;;;;;;;;;;;19.60;57.60;;;;;;5054313;28;1561;-68
2021/04/15 02:22:42;;;;;;;;;;;19.60;57.60;;;;;;5074505;28;1186;-67
2021/04/15 02:25:19;;;;;;;;;;;19.60;57.50;;;;;;5055914;28;1640;-68
2021/04/15 02:27:49;;;;;;;;;;;19.60;57.50;;;;;;5056211;28;1365;-69
2021/04/15 02:30:15;;;;;;;;;;;19.60;57.50;;;;;;5056410;28;1893;-68
2021/04/15 02:32:41;;;;;;;;;;;19.60;57.50;;;;;;5074125;28;1497;-68
2021/04/15 02:35:09;;;;;;;;;;;19.60;57.50;;;;;;5074494;28;1379;-68
2021/04/15 02:37:40;;;;;;;;;;;19.60;57.40;;;;;;5055860;28;1419;-68
2021/04/15 02:40:10;;;;;;;;;;;19.60;57.30;;;;;;5056417;28;1287;-68
2021/04/15 02:42:36;;;;;;;;;;;19.70;57.40;;;;;;5039499;28;1298;-68
2021/04/15 02:45:05;;;;;;;;;;;19.80;57.30;;;;;;5056155;28;1182;-68
2021/04/15 02:47:32;;;;;;;;;;;19.80;57.20;;;;;;5055909;28;1720;-68
2021/04/15 02:49:58;;;;;;;;;;;20.00;57.00;;;;;;5055957;28;1705;-68
2021/04/15 02:52:25;;;;;;;;;;;20.10;56.80;;;;;;5056075;28;2003;-67
2021/04/15 02:54:55;;;;;;;;;;;20.20;56.70;;;;;;5055567;28;1105;-67
2021/04/15 02:57:24;;;;;;;;;;;20.30;56.40;;;;;;5055553;28;1470;-66
2021/04/15 02:59:53;;;;;;;;;;;20.40;56.20;;;;;;5055924;28;1370;-69
2021/04/15 03:02:22;;;;;;;;;;;20.50;56.00;;;;;;5055837;28;1670;-69
2021/04/15 03:04:50;;;;;;;;;;;20.60;55.70;;;;;;5056074;28;1685;-69
2021/04/15 03:07:15;;;;;;;;;;;20.60;55.50;;;;;;5055535;28;1332;-69
2021/04/15 03:09:40;;;;;;;;;;;20.70;55.30;;;;;;5055784;28;1724;-69
2021/04/15 03:12:07;;;;;;;;;;;20.70;55.20;;;;;;5055370;28;1972;-69
2021/04/15 03:14:35;;;;;;;;;;;20.80;55.00;;;;;;5073113;28;1384;-67
2021/04/15 03:17:02;;;;;;;;;;;20.90;54.90;;;;;;5055308;28;1431;-67
2021/04/15 03:19:41;;;;;;;;;;;20.90;54.80;;;;;;5055278;28;1365;-67
2021/04/15 03:22:16;;;;;;;;;;;21.00;54.70;;;;;;5055493;28;1172;-68
2021/04/15 03:24:42;;;;;;;;;;;21.00;54.60;;;;;;5055413;28;1456;-68
2021/04/15 03:27:07;;;;;;;;;;;21.10;54.50;;;;;;5055362;28;1426;-68
2021/04/15 03:29:45;;;;;;;;;;;21.10;54.50;;;;;;5073224;28;1686;-68
2021/04/15 03:32:10;;;;;;;;;;;21.10;54.40;;;;;;5073320;28;1897;-67
2021/04/15 03:34:42;;;;;;;;;;;21.20;54.40;;;;;;5073391;28;1504;-68
2021/04/15 03:37:07;;;;;;;;;;;21.20;54.30;;;;;;5054088;28;1728;-68
2021/04/15 03:39:33;;;;;;;;;;;21.20;54.30;;;;;;5055169;28;1501;-68
2021/04/15 03:42:02;;;;;;;;;;;21.20;54.30;;;;;;5038559;28;1350;-68
2021/04/15 03:44:30;;;;;;;;;;;21.20;54.80;;;;;;5055188;28;1162;-67
2021/04/15 03:47:05;;;;;;;;;;;21.30;54.30;;;;;;5055391;28;1607;-67
2021/04/15 03:49:33;;;;;;;;;;;21.30;54.30;;;;;;5086592;22;4239;-68
2021/04/15 03:52:06;;;;;;;;;;;21.30;54.30;;;;;;5060124;28;1905;-68
2021/04/15 03:54:38;;;;;;;;;;;21.30;54.30;;;;;;5071830;28;1353;-68
2021/04/15 03:57:04;;;;;;;;;;;21.30;54.30;;;;;;5054862;28;1393;-68
2021/04/15 03:59:30;;;;;;;;;;;21.30;54.30;;;;;;5051683;28;1683;-68
2021/04/15 04:01:55;;;;;;;;;;;21.30;54.30;;;;;;5048819;28;1771;-69
2021/04/15 04:04:24;;;;;;;;;;;21.20;54.90;;;;;;5053093;28;1547;-69
2021/04/15 04:06:50;;;;;;;;;;;21.20;54.30;;;;;;5050159;28;1506;-69
2021/04/15 04:09:30;;;;;;;;;;;21.20;54.30;;;;;;5072398;28;1345;-69
2021/04/15 04:11:55;;;;;;;;;;;21.20;54.40;;;;;;5054419;28;1902;-69
2021/04/15 04:14:25;;;;;;;;;;;21.20;54.40;;;;;;5054745;28;1421;-69
2021/04/15 04:16:52;;;;;;;;;;;21.20;54.40;;;;;;5054562;28;1390;-70
2021/04/15 04:19:22;;;;;;;;;;;21.20;54.50;;;;;;5054490;28;1721;-70
2021/04/15 04:21:59;;;;;;;;;;;21.20;54.50;;;;;;5038130;28;1514;-69
2021/04/15 04:24:28;;;;;;;;;;;21.10;54.60;;;;;;5054914;28;854;-69
2021/04/15 04:26:58;;;;;;;;;;;21.10;54.60;;;;;;5054162;28;1565;-68
2021/04/15 04:29:29;;;;;;;;;;;21.10;54.70;;;;;;5054703;28;1359;-69
2021/04/15 04:31:56;;;;;;;;;;;21.10;54.70;;;;;;5054587;28;2025;-69
2021/04/15 04:34:22;;;;;;;;;;;21.10;54.70;;;;;;5050155;28;1686;-68
2021/04/15 04:36:47;;;;;;;;;;;21.00;54.70;;;;;;5072589;28;1671;-68
2021/04/15 04:39:13;;;;;;;;;;;21.00;54.80;;;;;;5071682;28;1440;-68
2021/04/15 04:41:39;;;;;;;;;;;21.00;54.90;;;;;;5072082;28;1403;-68
2021/04/15 04:44:06;;;;;;;;;;;21.00;54.90;;;;;;5072581;28;1257;-68
2021/04/15 04:46:40;;;;;;;;;;;21.00;54.90;;;;;;5054608;28;1587;-67
2021/04/15 04:49:07;;;;;;;;;;;21.00;55.00;;;;;;5057032;28;1474;-67
2021/04/15 04:51:44;;;;;;;;;;;20.90;55.00;;;;;;5058105;28;1975;-67
2021/04/15 04:54:10;;;;;;;;;;;20.90;55.00;;;;;;5058276;28;1364;-70
2021/04/15 04:56:38;;;;;;;;;;;20.90;55.10;;;;;;5058327;28;1602;-70
2021/04/15 04:59:10;;;;;;;;;;;20.90;55.10;;;;;;5056678;28;1379;-70
2021/04/15 05:01:35;;;;;;;;;;;20.90;55.20;;;;;;5058311;28;1416;-70
2021/04/15 05:04:01;;;;;;;;;;;20.90;55.20;;;;;;5058150;28;1729;-70
2021/04/15 05:06:27;;;;;;;;;;;20.90;55.30;;;;;;5058192;28;1561;-70
2021/04/15 05:08:53;;;;;;;;;;;20.80;55.20;;;;;;5057755;28;1483;-70
2021/04/15 05:11:18;;;;;;;;;;;20.80;55.20;;;;;;5075991;28;1898;-71
2021/04/15 05:13:43;;;;;;;;;;;20.90;55.90;;;;;;5057434;28;1647;-70
2021/04/15 05:16:09;;;;;;;;;;;20.80;55.20;;;;;;5058256;28;1374;-70
2021/04/15 05:18:34;;;;;;;;;;;20.90;55.30;;;;;;5075524;28;1599;-70
2021/04/15 05:21:11;;;;;;;;;;;20.90;55.20;;;;;;5058160;28;1742;-70
2021/04/15 05:23:39;;;;;;;;;;;20.90;55.20;;;;;;5057564;28;1531;-70
2021/04/15 05:26:13;;;;;;;;;;;20.90;55.10;;;;;;5057990;28;1589;-70
2021/04/15 05:28:39;;;;;;;;;;;21.00;55.10;;;;;;5062837;28;1649;-70
2021/04/15 05:31:05;;;;;;;;;;;20.90;55.00;;;;;;5057817;28;1902;-70
2021/04/15 05:33:30;;;;;;;;;;;21.00;55.00;;;;;;5057905;28;1620;-70
2021/04/15 05:36:04;;;;;;;;;;;21.00;55.00;;;;;;5057616;28;1643;-69
2021/04/15 05:38:31;;;;;;;;;;;21.00;55.00;;;;;;5057276;28;1590;-70
2021/04/15 05:40:56;;;;;;;;;;;21.00;55.00;;;;;;5057527;28;1290;-70
2021/04/15 05:43:29;;;;;;;;;;;21.00;55.00;;;;;;5057767;28;1596;-70
2021/04/15 05:45:59;;;;;;;;;;;20.90;55.00;;;;;;5057600;28;1669;-70
2021/04/15 05:48:24;;;;;;;;;;;21.00;55.10;;;;;;5056996;28;1397;-70
2021/04/15 05:50:50;;;;;;;;;;;21.00;55.10;;;;;;5057466;28;1906;-70
2021/04/15 05:53:29;;;;;;;;;;;20.90;55.10;;;;;;5057482;28;1378;-70
2021/04/15 05:55:56;;;;;;;;;;;20.90;55.10;;;;;;5075424;28;1361;-70
2021/04/15 05:58:34;;;;;;;;;;;20.90;55.10;;;;;;5057138;28;1665;-70
2021/04/15 06:01:10;;;;;;;;;;;20.90;55.20;;;;;;5056186;28;1493;-70
2021/04/15 06:03:51;;;;;;;;;;;20.90;55.20;;;;;;5057139;28;1674;-70
2021/04/15 06:06:18;;;;;;;;;;;20.90;55.20;;;;;;5075382;28;1480;-70
2021/04/15 06:08:45;;;;;;;;;;;20.90;55.30;;;;;;5056320;28;1064;-70
2021/04/15 06:11:22;;;;;;;;;;;20.80;55.20;;;;;;5056986;28;1981;-70
2021/04/15 06:13:49;;;;;;;;;;;20.80;55.30;;;;;;5056531;28;1127;-69
2021/04/15 06:16:19;;;;;;;;;;;20.80;55.30;;;;;;5056979;28;1155;-70
2021/04/15 06:18:45;;;;;;;;;;;20.80;55.30;;;;;;5056234;28;1509;-69
2021/04/15 06:21:23;;;;;;;;;;;20.80;55.40;;;;;;5056714;28;1167;-70
2021/04/15 06:23:53;;;;;;;;;;;20.80;55.40;;;;;;5039730;28;1164;-69
2021/04/15 06:26:32;;;;;;;;;;;20.80;55.50;;;;;;5074414;28;1162;-69
2021/04/15 06:28:58;;;;;;;;;;;20.80;55.50;;;;;;5056258;28;1076;-69
2021/04/15 06:31:27;;;;;;;;;;;20.80;55.50;;;;;;5074233;28;1961;-68
2021/04/15 06:33:53;;;;;;;;;;;20.80;55.60;;;;;;5074393;28;1112;-68
2021/04/15 06:36:25;;;;;;;;;;;20.80;55.60;;;;;;5056116;28;1122;-68
2021/04/15 06:38:57;;;;;;;;;;;20.70;55.60;;;;;;5056213;28;1060;-67
2021/04/15 06:41:34;;;;;;;;;;;20.70;55.60;;;;;;5056379;28;1176;-69
2021/04/15 06:44:18;;;;;;;;;;;20.70;55.70;;;;;;5074336;28;1114;-69
2021/04/15 06:46:57;;;;;;;;;;;20.70;55.70;;;;;;5073663;28;1079;-69
2021/04/15 06:49:42;;;;;;;;;;;20.70;55.70;;;;;;5055591;28;1401;-69
2021/04/15 06:52:26;;;;;;;;;;;20.70;55.80;;;;;;5073578;28;1909;-70
2021/04/15 06:54:54;;;;;;;;;;;20.60;55.70;;;;;;5073959;28;1095;-70
2021/04/15 06:57:27;;;;;;;;;;;20.60;55.80;;;;;;5055729;28;1119;-71
2021/04/15 06:59:54;;;;;;;;;;;20.60;55.80;;;;;;5056172;28;1201;-69
2021/04/15 07:02:38;;;;;;;;;;;20.60;55.80;;;;;;5055773;28;1147;-70
2021/04/15 07:05:04;;;;;;;;;;;20.60;55.90;;;;;;5073595;28;1079;-70
2021/04/15 07:07:30;;;;;;;;;;;20.60;55.90;;;;;;5055570;28;1166;-69
2021/04/15 07:10:28;;;;;;;;;;;20.60;55.90;;;;;;5055662;28;1376;-70
2021/04/15 07:13:12;;;;;;;;;;;20.60;55.90;;;;;;5033360;28;1309;-69
2021/04/15 07:15:41;;;;;;;;;;;20.50;55.90;;;;;;5060976;28;1087;-69
2021/04/15 07:18:26;;;;;;;;;;;20.50;55.90;;;;;;5055007;28;1232;-68
2021/04/15 07:21:02;;;;;;;;;;;20.50;56.00;;;;;;5073054;28;1215;-68
2021/04/15 07:23:27;;;;;;;;;;;20.50;56.00;;;;;;5038760;28;1258;-68
2021/04/15 07:26:07;;;;;;;;;;;20.50;56.00;;;;;;5062295;28;1079;-69
2021/04/15 07:28:36;;;;;;;;;;;20.50;56.00;;;;;;5041920;28;1147;-68
2021/04/15 07:31:17;;;;;;;;;;;20.50;56.00;;;;;;5073235;28;1961;-69
2021/04/15 07:34:03;;;;;;;;;;;20.50;56.10;;;;;;5055883;28;766;-70
2021/04/15 07:36:30;;;;;;;;;;;20.50;56.10;;;;;;5073060;28;1103;-70
2021/04/15 07:38:59;;;;;;;;;;;20.50;56.10;;;;;;5054706;28;1574;-70
2021/04/15 07:41:31;;;;;;;;;;;20.50;56.10;;;;;;5055130;28;1275;-70
2021/04/15 07:44:06;;;;;;;;;;;20.40;56.10;;;;;;5073092;28;1110;-70
2021/04/15 07:46:31;;;;;;;;;;;20.40;56.10;;;;;;5042943;28;1192;-70
2021/04/15 07:49:00;;;;;;;;;;;20.40;56.20;;;;;;5072759;28;1059;-70
2021/04/15 07:51:31;;;;;;;;;;;20.40;56.10;;;;;;5054775;28;1898;-70
2021/04/15 07:54:00;;;;;;;;;;;20.40;56.20;;;;;;5054818;28;1255;-70
2021/04/15 07:56:44;;;;;;;;;;;20.40;56.20;;;;;;5073109;28;1122;-69
2021/04/15 07:59:15;;;;;;;;;;;20.40;56.20;;;;;;5072377;28;1114;-69
2021/04/15 08:02:01;;;;;;;;;;;20.40;56.20;;;;;;5065814;28;2217;-69
2021/04/15 08:04:45;;;;;;;;;;;20.40;56.30;;;;;;5053781;28;1080;-69
2021/04/15 08:07:17;;;;;;;;;;;20.40;56.30;;;;;;5072133;28;1185;-69
2021/04/15 08:10:05;;;;;;;;;;;20.40;56.40;;;;;;5053268;28;1279;-69
2021/04/15 08:12:33;;;;;;;;;;;20.40;56.40;;;;;;5043446;28;1969;-69
2021/04/15 08:15:06;;;;;;;;;;;20.40;56.40;;;;;;5072667;28;1090;-69
2021/04/15 08:17:50;;;;;;;;;;;20.30;56.40;;;;;;5054316;28;1298;-71
2021/04/15 08:20:16;;;;;;;;;;;20.30;56.40;;;;;;5072590;28;1218;-71
2021/04/15 08:22:53;;;;;;;;;;;20.30;56.40;;;;;;5072881;28;1074;-69
2021/04/15 08:25:21;;;;;;;;;;;20.30;56.40;;;;;;5058800;28;1296;-69
2021/04/15 08:28:04;;;;;;;;;;;20.30;56.40;;;;;;5058289;28;1127;-70
2021/04/15 08:30:32;;;;;;;;;;;20.30;56.50;;;;;;5076781;28;1897;-69
2021/04/15 08:33:12;;;;;;;;;;;20.30;56.50;;;;;;5058775;28;1635;-69
2021/04/15 08:35:54;;;;;;;;;;;20.30;56.50;;;;;;5076979;28;1645;-69
2021/04/15 08:38:33;;;;;;;;;;;20.30;56.50;;;;;;5058463;28;1359;-69
2021/04/15 08:41:07;;;;;;;;;;;20.30;56.50;;;;;;5059031;28;1372;-69
2021/04/15 08:43:51;;;;;;;;;;;20.30;56.50;;;;;;5058514;28;1421;-69
2021/04/15 08:46:36;;;;;;;;;;;20.30;56.60;;;;;;5076530;28;1171;-69
2021/04/15 08:49:22;;;;;;;;;;;20.20;56.50;;;;;;5076089;28;1474;-69
2021/04/15 08:52:06;;;;;;;;;;;20.20;56.50;;;;;;5058343;28;1906;-68
2021/04/15 08:54:37;;;;;;;;;;;20.30;56.60;;;;;;5076468;28;1648;-68
2021/04/15 08:57:05;;;;;;;;;;;20.20;56.60;;;;;;5057232;28;1658;-68
2021/04/15 08:59:40;;;;;;;;;;;20.20;56.60;;;;;;5075808;28;1291;-69
2021/04/15 09:02:25;;;;;;;;;;;20.20;56.60;;;;;;5057918;28;1130;-69
2021/04/15 09:04:58;;;;;;;;;;;20.20;56.60;;;;;;5076050;28;1284;-67
2021/04/15 09:07:27;;;;;;;;;;;20.20;56.70;;;;;;5057819;28;1056;-68
2021/04/15 09:09:59;;;;;;;;;;;20.20;56.70;;;;;;5057818;28;1304;-68
2021/04/15 09:12:24;;;;;;;;;;;20.20;56.70;;;;;;5075894;28;1967;-71
2021/04/15 09:14:53;;;;;;;;;;;20.20;56.70;;;;;;5057084;28;1263;-71
2021/04/15 09:17:31;;;;;;;;;;;20.20;56.70;;;;;;5075599;28;1059;-68
2021/04/15 09:20:02;;;;;;;;;;;20.20;56.70;;;;;;5057695;28;1283;-68
2021/04/15 09:22:34;;;;;;;;;;;20.10;56.70;;;;;;5075736;28;1075;-68
2021/04/15 09:25:04;;;;;;;;;;;20.10;56.80;;;;;;5075614;28;1154;-68
2021/04/15 09:27:35;;;;;;;;;;;20.20;56.80;;;;;;5057650;28;1076;-68
2021/04/15 09:30:05;;;;;;;;;;;20.20;56.80;;;;;;5057400;28;1643;-68
2021/04/15 09:32:30;;;;;;;;;;;20.10;56.80;;;;;;5041038;28;1957;-67
2021/04/15 09:35:02;;;;;;;;;;;20.10;56.80;;;;;;5070860;28;1099;-66
2021/04/15 09:37:30;;;;;;;;;;;20.10;56.80;;;;;;5056704;28;1179;-66
2021/04/15 09:40:01;;;;;;;;;;;20.10;56.80;;;;;;5075325;28;1271;-66
2021/04/15 09:42:32;;;;;;;;;;;20.10;56.80;;;;;;5072930;28;1118;-66
2021/04/15 09:45:01;;;;;;;;;;;20.10;56.80;;;;;;5057304;28;1072;-66
2021/04/15 09:47:31;;;;;;;;;;;20.10;56.80;;;;;;5053068;28;1081;-66
2021/04/15 09:49:58;;;;;;;;;;;20.10;56.80;;;;;;5063686;23;2074;-64
2021/04/15 09:52:33;;;;;;;;;;;20.10;56.80;;;;;;5044613;28;1933;-64
2021/04/15 09:55:08;;;;;;;;;;;20.10;56.80;;;;;;5047710;28;1062;-64
2021/04/15 09:57:52;;;;;;;;;;;20.10;56.80;;;;;;5053214;28;1647;-64
2021/04/15 10:00:22;;;;;;;;;;;20.10;56.80;;;;;;5055109;28;1391;-64
2021/04/15 10:02:54;;;;;;;;;;;20.10;56.80;;;;;;5053741;28;1198;-65
2021/04/15 10:05:42;;;;;;;;;;;20.10;56.90;;;;;;5055263;28;1358;-64
2021/04/15 10:08:09;;;;;;;;;;;20.10;56.90;;;;;;5044535;28;2445;-64
2021/04/15 10:10:34;;;;;;;;;;;20.10;56.90;;;;;;5035959;28;1959;-64
2021/04/15 10:13:09;;;;;;;;;;;20.10;56.90;;;;;;5053525;28;1440;-64
2021/04/15 10:15:41;;;;;;;;;;;20.10;56.90;;;;;;5034048;28;1014;-65
2021/04/15 10:18:12;;;;;;;;;;;20.10;56.90;;;;;;5031898;28;1987;-65
2021/04/15 10:20:43;;;;;;;;;;;20.10;56.90;;;;;;5053153;28;1567;-64
2021/04/15 10:23:14;;;;;;;;;;;20.10;56.90;;;;;;5053500;28;1032;-65
2021/04/15 10:25:42;;;;;;;;;;;20.10;56.90;;;;;;5053326;28;1404;-65
2021/04/15 10:28:10;;;;;;;;;;;20.10;56.90;;;;;;5053297;28;1647;-65
2021/04/15 10:30:54;;;;;;;;;;;20.10;56.90;;;;;;5053025;28;1949;-64
2021/04/15 10:33:32;;;;;;;;;;;20.10;56.90;;;;;;5023142;28;2020;-63
2021/04/15 10:35:58;;;;;;;;;;;20.10;56.90;;;;;;5034060;28;1999;-65
2021/04/15 10:38:26;;;;;;;;;;;20.10;56.90;;;;;;5050880;28;1590;-64
2021/04/15 10:40:54;;;;;;;;;;;20.10;56.90;;;;;;5050504;28;1378;-64
2021/04/15 10:43:38;;;;;;;;;;;20.10;56.90;;;;;;5045545;28;1240;-69
2021/04/15 10:46:07;;;;;;;;;;;20.00;56.90;;;;;;5043740;28;1564;-68
2021/04/15 10:48:32;;;;;;;;;;;20.10;57.00;;;;;;5045502;28;1156;-69
2021/04/15 10:51:03;;;;;;;;;;;20.10;57.00;;;;;;5050095;28;2105;-69
2021/04/15 10:53:35;;;;;;;;;;;20.00;56.90;;;;;;5037120;28;1378;-69
2021/04/15 10:56:03;;;;;;;;;;;20.10;57.00;;;;;;5046510;28;2014;-68
2021/04/15 10:58:55;;;;;;;;;;;20.00;56.90;;;;;;5052413;28;1445;-67
2021/04/15 11:01:24;;;;;;;;;;;20.10;57.00;;;;;;5045916;28;2213;-69
2021/04/15 11:03:49;;;;;;;;;;;20.10;57.00;;;;;;5050365;28;1638;-66
2021/04/15 11:06:29;;;;;;;;;;;20.10;57.00;;;;;;5044802;28;1489;-68
2021/04/15 11:08:54;;;;;;;;;;;20.00;56.90;;;;;;5041611;28;1426;-68
2021/04/15 11:11:24;;;;;;;;;;;20.00;56.90;;;;;;5049068;28;2269;-68
2021/04/15 11:13:49;;;;;;;;;;;20.00;56.90;;;;;;5040037;28;2303;-68
2021/04/15 11:16:18;;;;;;;;;;;20.00;56.90;;;;;;5040511;28;1501;-68
2021/04/15 11:18:44;;;;;;;;;;;20.00;57.50;;;;;;5031527;28;1607;-68
2021/04/15 11:21:16;;;;;;;;;;;20.10;57.00;;;;;;5021198;28;1666;-68
2021/04/15 11:23:41;;;;;;;;;;;20.00;56.90;;;;;;5051468;28;2028;-65
2021/04/15 11:26:30;;;;;;;;;;;20.00;57.00;;;;;;5046127;28;1803;-65
2021/04/15 11:28:57;;;;;;;;;;;20.00;57.00;;;;;;5042140;28;1112;-67
2021/04/15 11:31:31;;;;;;;;;;;20.00;57.00;;;;;;5041930;28;1902;-65
2021/04/15 11:34:04;;;;;;;;;;;20.00;57.00;;;;;;5048219;28;1521;-68
2021/04/15 11:36:34;;;;;;;;;;;20.00;57.00;;;;;;5046888;28;1334;-65
2021/04/15 11:39:06;;;;;;;;;;;20.00;57.00;;;;;;5050310;28;1346;-65
2021/04/15 11:41:33;;;;;;;;;;;20.00;57.00;;;;;;5050700;28;1309;-64
2021/04/15 11:44:13;;;;;;;;;;;20.00;57.00;;;;;;5033865;28;1202;-67
2021/04/15 11:46:47;;;;;;;;;;;20.00;57.00;;;;;;5051899;28;1575;-65
2021/04/15 11:49:13;;;;;;;;;;;20.00;57.00;;;;;;5051561;28;1625;-65
2021/04/15 11:51:40;;;;;;;;;;;20.00;57.00;;;;;;5050292;28;1898;-66
2021/04/15 11:54:13;;;;;;;;;;;20.00;57.00;;;;;;5050428;28;1567;-65
2021/04/15 11:56:38;;;;;;;;;;;20.00;57.00;;;;;;5050459;28;1607;-66
2021/04/15 11:59:13;;;;;;;;;;;20.00;57.00;;;;;;5046466;28;2262;-67
2021/04/15 12:01:38;;;;;;;;;;;20.00;57.00;;;;;;5042245;28;1617;-66
2021/04/15 12:04:07;;;;;;;;;;;20.00;57.10;;;;;;5051658;28;1522;-67
2021/04/15 12:06:34;;;;;;;;;;;20.00;57.00;;;;;;5051567;28;1138;-66
2021/04/15 12:09:00;;;;;;;;;;;20.00;57.10;;;;;;5033546;28;1646;-66
2021/04/15 12:11:32;;;;;;;;;;;20.00;57.00;;;;;;5050199;28;2040;-66
2021/04/15 12:14:08;;;;;;;;;;;20.00;57.00;;;;;;5034350;28;1380;-65
2021/04/15 12:16:41;;;;;;;;;;;20.00;56.90;;;;;;5051542;28;1471;-66
2021/04/15 12:19:16;;;;;;;;;;;20.10;56.90;;;;;;5033310;28;1649;-66
2021/04/15 12:21:46;;;;;;;;;;;20.20;56.80;;;;;;5033404;28;1688;-66
2021/04/15 12:24:18;;;;;;;;;;;20.30;56.60;;;;;;5033501;28;1514;-65
2021/04/15 12:26:44;;;;;;;;;;;20.40;56.50;;;;;;5033640;28;1559;-65
2021/04/15 12:29:12;;;;;;;;;;;20.40;56.20;;;;;;5051097;28;1428;-65
2021/04/15 12:31:39;;;;;;;;;;;20.50;56.00;;;;;;5049759;28;1894;-65
2021/04/15 12:34:31;;;;;;;;;;;20.60;55.80;;;;;;5051262;28;1673;-65
2021/04/15 12:37:04;;;;;;;;;;;20.70;55.70;;;;;;5048735;28;1652;-65
2021/04/15 12:39:46;;;;;;;;;;;20.80;55.50;;;;;;5033228;28;1461;-66
2021/04/15 12:42:11;;;;;;;;;;;20.80;55.30;;;;;;5050068;28;1683;-65
2021/04/15 12:44:36;;;;;;;;;;;20.90;55.20;;;;;;5049833;28;1567;-64
2021/04/15 12:47:02;;;;;;;;;;;20.90;55.00;;;;;;5043155;28;2322;-65
2021/04/15 12:49:35;;;;;;;;;;;21.00;55.00;;;;;;5050562;28;1371;-66
2021/04/15 12:52:01;;;;;;;;;;;21.00;54.90;;;;;;5050983;28;1902;-66
2021/04/15 12:54:27;;;;;;;;;;;21.10;54.80;;;;;;5033090;28;1457;-64
2021/04/15 12:56:53;;;;;;;;;;;21.10;54.70;;;;;;5051412;28;1344;-64
2021/04/15 12:59:27;;;;;;;;;;;21.10;54.70;;;;;;5049325;28;1555;-65
2021/04/15 13:01:56;;;;;;;;;;;21.20;54.60;;;;;;5049696;28;1650;-66
2021/04/15 13:04:40;;;;;;;;;;;21.20;54.60;;;;;;5033511;28;1115;-65
2021/04/15 13:07:09;;;;;;;;;;;21.20;54.50;;;;;;5036381;28;1760;-65
2021/04/15 13:09:44;;;;;;;;;;;21.20;54.50;;;;;;5018468;28;1561;-65
2021/04/15 13:12:18;;;;;;;;;;;21.30;54.50;;;;;;5054579;28;2391;-66
2021/04/15 13:14:45;;;;;;;;;;;21.30;54.50;;;;;;5052370;28;1959;-67
2021/04/15 13:17:11;;;;;;;;;;;21.30;54.40;;;;;;5036297;28;1250;-68
2021/04/15 13:19:37;;;;;;;;;;;21.30;54.40;;;;;;5035948;28;1553;-66
2021/04/15 13:22:21;;;;;;;;;;;21.30;54.40;;;;;;5035758;28;1656;-65
2021/04/15 13:24:49;;;;;;;;;;;21.30;54.40;;;;;;5030896;28;1238;-66
2021/04/15 13:27:37;;;;;;;;;;;21.30;54.40;;;;;;5049550;28;1149;-68
2021/04/15 13:30:26;;;;;;;;;;;21.30;54.40;;;;;;5050193;28;1380;-67
2021/04/15 13:32:56;;;;;;;;;;;21.30;54.40;;;;;;5042355;28;1210;-65
2021/04/15 13:35:22;;;;;;;;;;;21.30;54.40;;;;;;5029174;28;1373;-65
2021/04/15 13:37:47;;;;;;;;;;;21.30;54.50;;;;;;5050420;28;2144;-66
2021/04/15 13:40:22;;;;;;;;;;;21.30;54.50;;;;;;5038470;28;1279;-64
2021/04/15 13:42:48;;;;;;;;;;;21.30;54.50;;;;;;5049026;28;1160;-64
2021/04/15 13:45:40;;;;;;;;;;;21.20;54.50;;;;;;5044865;28;1265;-65
2021/04/15 13:48:06;;;;;;;;;;;21.20;54.50;;;;;;5024716;28;1426;-65
2021/04/15 13:50:59;;;;;;;;;;;21.20;54.60;;;;;;5026329;28;1921;-68
2021/04/15 13:53:37;;;;;;;;;;;21.20;54.70;;;;;;5042856;28;1179;-65
2021/04/15 13:56:03;;;;;;;;;;;21.20;54.70;;;;;;5026336;28;1645;-66
2021/04/15 13:58:38;;;;;;;;;;;21.10;54.70;;;;;;5042431;28;1358;-66
2021/04/15 14:01:24;;;;;;;;;;;21.10;54.70;;;;;;5047886;28;1840;-66
2021/04/15 14:03:49;;;;;;;;;;;21.10;54.80;;;;;;5049366;28;1515;-68
2021/04/15 14:06:22;;;;;;;;;;;21.10;54.90;;;;;;5042763;28;1486;-67
2021/04/15 14:08:48;;;;;;;;;;;21.10;54.90;;;;;;5035461;28;1557;-67
2021/04/15 14:11:23;;;;;;;;;;;21.10;55.00;;;;;;5032132;28;1963;-65
2021/04/15 14:13:49;;;;;;;;;;;21.00;55.00;;;;;;5026462;28;1616;-65
2021/04/15 14:16:18;;;;;;;;;;;21.00;55.30;;;;;;5028243;28;1546;-66
2021/04/15 14:18:44;;;;;;;;;;;21.00;55.00;;;;;;5030535;28;1574;-69
2021/04/15 14:21:14;;;;;;;;;;;21.00;55.10;;;;;;5034191;28;1595;-67
2021/04/15 14:23:46;;;;;;;;;;;21.00;55.10;;;;;;5046765;28;1518;-66
2021/04/15 14:26:26;;;;;;;;;;;21.00;55.20;;;;;;5030881;28;2281;-66
2021/04/15 14:28:52;;;;;;;;;;;20.90;55.20;;;;;;5032063;28;2314;-66
2021/04/15 14:31:19;;;;;;;;;;;20.90;55.20;;;;;;5039783;28;1965;-65
2021/04/15 14:33:45;;;;;;;;;;;21.00;55.30;;;;;;5051598;28;1533;-66
2021/04/15 14:36:23;;;;;;;;;;;21.00;55.30;;;;;;5052953;28;1422;-65
2021/04/15 14:38:49;;;;;;;;;;;20.90;55.20;;;;;;5044041;28;1652;-64
2021/04/15 14:41:14;;;;;;;;;;;21.00;55.20;;;;;;5052449;28;1403;-65
2021/04/15 14:43:40;;;;;;;;;;;21.00;55.20;;;;;;5043156;28;1690;-66
2021/04/15 14:46:41;;;;;;;;;;;21.00;55.10;;;;;;5052898;28;1149;-65
2021/04/15 14:49:10;;;;;;;;;;;21.00;55.10;;;;;;5030524;28;1603;-65
2021/04/15 14:51:35;;;;;;;;;;;21.10;55.10;;;;;;5052865;28;1981;-66
2021/04/15 14:54:14;;;;;;;;;;;21.10;55.00;;;;;;5052981;28;1355;-64